createdAt,value
2023-04-15T00:04:01.935Z,79.00
2023-04-15T00:08:08.146Z,78.50
2023-04-15T00:12:13.718Z,79.20
2023-04-15T00:16:19.296Z,78.70
2023-04-15T00:20:24.946Z,78.70
2023-04-15T00:24:31.593Z,78.60
2023-04-15T00:28:37.104Z,78.90
2023-04-15T00:32:42.728Z,79.00
2023-04-15T00:36:48.357Z,79.00
2023-04-15T00:40:56.670Z,79.00
2023-04-15T00:45:02.465Z,79.30
2023-04-15T00:49:08.237Z,79.20
2023-04-15T00:53:13.788Z,79.40
2023-04-15T00:57:22.393Z,79.40
2023-04-15T01:01:29.251Z,79.50
2023-04-15T01:05:35.521Z,79.60
2023-04-15T01:09:42.230Z,79.60
2023-04-15T01:13:48.503Z,79.70
2023-04-15T01:17:54.338Z,80.00
2023-04-15T01:21:59.992Z,80.30
2023-04-15T01:26:07.952Z,80.30
2023-04-15T01:30:13.587Z,80.40
2023-04-15T01:34:19.856Z,80.40
2023-04-15T01:38:27.418Z,80.40
2023-04-15T01:42:36.530Z,80.50
2023-04-15T01:46:42.033Z,80.50
2023-04-15T01:50:48.126Z,80.40
2023-04-15T01:54:54.681Z,80.50
2023-04-15T01:59:00.390Z,80.50
2023-04-15T02:03:06.700Z,80.60
2023-04-15T02:07:12.222Z,80.60
2023-04-15T02:11:18.276Z,80.50
2023-04-15T02:15:23.774Z,80.40
2023-04-15T02:19:29.392Z,80.40
2023-04-15T02:23:34.898Z,80.50
2023-04-15T02:27:40.452Z,80.50
2023-04-15T02:31:46.199Z,80.80
2023-04-15T02:35:51.828Z,81.60
2023-04-15T02:39:57.311Z,80.90
2023-04-15T02:44:03.057Z,80.80
2023-04-15T02:48:08.520Z,80.80
2023-04-15T02:52:14.086Z,81.00
2023-04-15T02:56:19.889Z,80.90
2023-04-15T03:00:26.132Z,80.90
2023-04-15T03:04:32.682Z,80.90
2023-04-15T03:08:38.223Z,81.10
2023-04-15T03:12:43.937Z,81.60
2023-04-15T03:16:50.655Z,81.10
2023-04-15T03:20:56.214Z,81.20
2023-04-15T03:25:01.885Z,81.20
2023-04-15T03:29:07.594Z,81.20
2023-04-15T03:33:13.291Z,81.30
2023-04-15T03:37:18.873Z,81.40
2023-04-15T03:41:24.775Z,81.50
2023-04-15T03:45:30.404Z,81.70
2023-04-15T03:49:37.059Z,81.80
2023-04-15T03:53:44.851Z,81.80
2023-04-15T03:57:50.478Z,82.00
2023-04-15T04:01:56.388Z,82.80
2023-04-15T04:06:02.183Z,82.20
2023-04-15T04:10:08.564Z,82.20
2023-04-15T04:14:14.121Z,82.30
2023-04-15T04:18:19.642Z,82.60
2023-04-15T04:22:26.222Z,82.60
2023-04-15T04:26:31.652Z,82.60
2023-04-15T04:30:37.273Z,82.30
2023-04-15T04:34:42.785Z,82.00
2023-04-15T04:38:48.348Z,82.40
2023-04-15T04:42:54.358Z,82.10
2023-04-15T04:47:00.036Z,82.40
2023-04-15T04:51:05.606Z,82.40
2023-04-15T04:55:11.673Z,82.30
2023-04-15T04:59:18.954Z,82.20
2023-04-15T05:03:25.210Z,82.20
2023-04-15T05:07:31.229Z,82.40
2023-04-15T05:11:36.725Z,82.40
2023-04-15T05:15:43.350Z,82.40
2023-04-15T05:19:49.055Z,82.20
2023-04-15T05:23:54.584Z,82.10
2023-04-15T05:28:00.518Z,82.10
2023-04-15T05:32:06.644Z,82.00
2023-04-15T05:36:12.222Z,82.00
2023-04-15T05:40:18.058Z,82.00
2023-04-15T05:44:23.696Z,81.90
2023-04-15T05:48:29.163Z,82.20
2023-04-15T05:52:34.662Z,82.00
2023-04-15T05:56:40.226Z,82.10
2023-04-15T06:00:46.331Z,82.10
2023-04-15T06:04:52.349Z,82.00
2023-04-15T06:08:59.126Z,82.00
2023-04-15T06:13:04.907Z,81.90
2023-04-15T06:17:10.605Z,82.00
2023-04-15T06:21:16.405Z,82.00
2023-04-15T06:25:22.144Z,82.10
2023-04-15T06:29:27.605Z,82.20
2023-04-15T06:33:33.218Z,82.10
2023-04-15T06:37:38.657Z,81.90
2023-04-15T06:41:44.332Z,81.80
2023-04-15T06:45:49.867Z,81.80
2023-04-15T06:49:55.518Z,81.40
2023-04-15T06:54:01.168Z,81.10
2023-04-15T06:58:06.710Z,81.40
2023-04-15T07:02:14.057Z,81.20
2023-04-15T07:06:21.976Z,81.00
2023-04-15T07:10:27.825Z,81.20
2023-04-15T07:14:33.761Z,81.00
2023-04-15T07:18:40.424Z,80.70
2023-04-15T07:22:45.927Z,81.00
2023-04-15T07:26:51.681Z,81.00
2023-04-15T07:30:57.432Z,81.10
2023-04-15T07:35:03.796Z,80.80
2023-04-15T07:39:10.200Z,80.90
2023-04-15T07:43:15.820Z,80.70
2023-04-15T07:47:22.727Z,80.60
2023-04-15T07:51:29.356Z,80.60
2023-04-15T07:55:35.027Z,80.50
2023-04-15T07:59:40.552Z,80.70
2023-04-15T08:03:46.649Z,80.60
2023-04-15T08:07:52.294Z,80.50
2023-04-15T08:11:58.102Z,80.20
2023-04-15T08:16:33.374Z,80.10
2023-04-15T08:20:39.015Z,80.10
2023-04-15T08:24:45.996Z,80.00
2023-04-15T08:28:51.614Z,79.70
2023-04-15T08:32:57.219Z,79.90
2023-04-15T08:37:02.749Z,79.50
2023-04-15T08:41:26.205Z,79.80
2023-04-15T08:45:32.220Z,79.10
2023-04-15T08:49:41.853Z,78.80
2023-04-15T08:53:47.891Z,78.60
2023-04-15T08:57:53.444Z,78.30
2023-04-15T09:01:59.332Z,78.40
2023-04-15T09:06:06.997Z,78.30
2023-04-15T09:10:13.235Z,77.50
2023-04-15T09:14:18.758Z,78.00
2023-04-15T09:18:32.610Z,77.60
2023-04-15T09:22:39.048Z,77.20
2023-04-15T09:26:44.632Z,76.70
2023-04-15T09:30:56.653Z,76.70
2023-04-15T09:35:13.112Z,76.30
2023-04-15T09:39:19.845Z,75.90
2023-04-15T09:43:40.042Z,76.40
2023-04-15T09:47:45.808Z,75.20
2023-04-15T09:52:01.666Z,75.10
2023-04-15T09:56:10.992Z,75.00
2023-04-15T10:00:16.858Z,74.70
2023-04-15T10:04:23.137Z,74.00
2023-04-15T10:08:32.916Z,74.00
2023-04-15T10:12:41.599Z,73.70
2023-04-15T10:16:49.187Z,72.90
2023-04-15T10:20:55.608Z,72.40
2023-04-15T10:25:04.211Z,72.40
2023-04-15T10:29:10.895Z,70.30
2023-04-15T10:33:21.813Z,70.40
2023-04-15T10:37:37.496Z,69.60
2023-04-15T10:41:43.236Z,70.50
2023-04-15T10:45:48.816Z,70.80
2023-04-15T10:50:01.748Z,70.10
2023-04-15T10:54:18.657Z,67.80
2023-04-15T10:58:26.051Z,68.90
2023-04-15T11:02:42.071Z,69.90
2023-04-15T11:07:07.081Z,67.50
2023-04-15T11:11:14.760Z,68.10
2023-04-15T11:15:47.237Z,68.40
2023-04-15T11:19:52.834Z,68.10
2023-04-15T11:23:59.362Z,69.00
2023-04-15T11:28:06.138Z,68.40
2023-04-15T11:32:12.094Z,67.80
2023-04-15T11:36:18.107Z,67.90
2023-04-15T11:40:27.286Z,65.80
2023-04-15T11:44:32.784Z,67.00
2023-04-15T11:48:44.966Z,67.30
2023-04-15T11:52:58.700Z,66.60
2023-04-15T11:57:04.265Z,66.20
2023-04-15T12:01:09.753Z,67.00
2023-04-15T12:05:16.141Z,67.20
2023-04-15T12:09:21.927Z,66.70
2023-04-15T12:13:28.355Z,66.70
2023-04-15T12:17:51.694Z,66.70
2023-04-15T12:22:04.450Z,66.30
2023-04-15T12:26:11.601Z,66.40
2023-04-15T12:30:17.073Z,66.20
2023-04-15T12:34:34.755Z,66.20
2023-04-15T12:38:40.249Z,65.10
2023-04-15T12:42:45.889Z,65.40
2023-04-15T12:46:53.596Z,65.70
2023-04-15T12:50:59.128Z,66.00
2023-04-15T12:55:05.136Z,65.20
2023-04-15T12:59:11.007Z,64.40
2023-04-15T13:03:16.911Z,64.10
2023-04-15T13:07:22.533Z,64.30
2023-04-15T13:11:30.996Z,64.50
2023-04-15T13:15:37.091Z,64.90
2023-04-15T13:19:42.685Z,64.20
2023-04-15T13:23:49.811Z,63.00
2023-04-15T13:27:55.246Z,62.90
2023-04-15T13:32:01.576Z,62.50
2023-04-15T13:36:07.760Z,62.70
2023-04-15T13:40:13.455Z,62.20
2023-04-15T13:44:20.893Z,61.60
2023-04-15T13:48:27.429Z,61.80
2023-04-15T13:52:32.919Z,60.90
2023-04-15T13:56:38.552Z,61.10
2023-04-15T14:00:44.151Z,60.60
2023-04-15T14:04:49.748Z,60.40
2023-04-15T14:08:55.614Z,60.60
2023-04-15T14:13:01.282Z,64.10
2023-04-15T14:17:07.319Z,67.40
2023-04-15T14:21:12.977Z,64.50
2023-04-15T14:25:30.461Z,64.30
2023-04-15T14:29:38.551Z,64.20
2023-04-15T14:33:43.934Z,64.40
2023-04-15T14:37:49.195Z,61.80
2023-04-15T14:41:55.623Z,63.00
2023-04-15T14:46:01.457Z,62.50
2023-04-15T14:50:07.402Z,62.00
2023-04-15T14:54:12.696Z,61.20
2023-04-15T14:58:18.069Z,61.30
2023-04-15T15:02:37.405Z,61.10
2023-04-15T15:06:44.402Z,61.10
2023-04-15T15:10:50.025Z,60.20
2023-04-15T15:14:56.055Z,60.50
2023-04-15T15:19:01.456Z,60.50
2023-04-15T15:23:06.849Z,61.10
2023-04-15T15:27:12.182Z,61.00
2023-04-15T15:31:17.654Z,61.30
2023-04-15T15:35:23.662Z,60.90
2023-04-15T15:39:29.177Z,61.70
2023-04-15T15:43:35.115Z,61.50
2023-04-15T15:47:41.110Z,61.70
2023-04-15T15:51:46.747Z,61.90
2023-04-15T15:55:53.773Z,61.70
2023-04-15T16:00:10.550Z,62.10
2023-04-15T16:04:17.937Z,61.80
2023-04-15T16:08:24.735Z,61.90
2023-04-15T16:12:30.337Z,62.00
2023-04-15T16:16:35.793Z,62.30
2023-04-15T16:20:41.554Z,62.40
2023-04-15T16:24:47.010Z,62.60
2023-04-15T16:28:52.500Z,62.90
2023-04-15T16:33:00.321Z,63.20
2023-04-15T16:37:05.968Z,63.50
2023-04-15T16:41:11.420Z,63.70
2023-04-15T16:45:19.061Z,63.80
2023-04-15T16:49:24.505Z,64.20
2023-04-15T16:53:32.151Z,64.30
2023-04-15T16:58:01.595Z,64.70
2023-04-15T17:02:03.109Z,65.20
2023-04-15T17:06:08.687Z,65.40
2023-04-15T17:10:14.311Z,65.70
2023-04-15T17:14:19.886Z,66.10
2023-04-15T17:18:25.517Z,66.30
2023-04-15T17:22:31.257Z,66.50
2023-04-15T17:26:36.923Z,66.80
2023-04-15T17:30:42.364Z,67.10
2023-04-15T17:34:51.402Z,67.60
2023-04-15T17:38:57.111Z,67.90
2023-04-15T17:43:02.582Z,68.10
2023-04-15T17:47:08.175Z,68.10
2023-04-15T17:51:13.704Z,68.30
2023-04-15T17:55:19.317Z,68.30
2023-04-15T17:59:24.923Z,68.50
2023-04-15T18:03:30.716Z,68.60
2023-04-15T18:07:36.597Z,68.80
2023-04-15T18:11:43.920Z,68.80
2023-04-15T18:15:51.270Z,69.10
2023-04-15T18:19:57.019Z,69.40
2023-04-15T18:24:02.937Z,69.60
2023-04-15T18:28:10.049Z,70.00
2023-04-15T18:32:15.559Z,70.20
2023-04-15T18:36:21.213Z,70.50
2023-04-15T18:40:26.918Z,70.60
2023-04-15T18:44:33.443Z,70.90
2023-04-15T18:48:38.942Z,71.10
2023-04-15T18:52:45.729Z,71.10
2023-04-15T18:56:51.827Z,71.20
2023-04-15T19:00:57.555Z,71.30
2023-04-15T19:05:05.512Z,71.90
2023-04-15T19:09:11.045Z,72.20
2023-04-15T19:13:18.857Z,72.40
2023-04-15T19:17:24.539Z,72.80
2023-04-15T19:21:30.778Z,72.60
2023-04-15T19:25:37.108Z,72.90
2023-04-15T19:29:42.863Z,72.90
2023-04-15T19:33:48.397Z,72.50
2023-04-15T19:37:53.870Z,72.60
2023-04-15T19:41:59.433Z,72.80
2023-04-15T19:46:04.942Z,73.10
2023-04-15T19:50:11.890Z,73.10
2023-04-15T19:54:17.546Z,73.40
2023-04-15T19:58:23.247Z,73.30
2023-04-15T20:02:30.018Z,73.80
2023-04-15T20:06:35.853Z,73.70
2023-04-15T20:10:41.440Z,73.50
2023-04-15T20:14:47.290Z,73.40
2023-04-15T20:18:53.965Z,73.50
2023-04-15T20:22:59.454Z,73.70
2023-04-15T20:27:05.103Z,73.50
2023-04-15T20:31:10.704Z,73.60
2023-04-15T20:35:16.414Z,73.70
2023-04-15T20:39:21.992Z,73.60
2023-04-15T20:43:27.613Z,73.70
2023-04-15T20:47:33.104Z,73.90
2023-04-15T20:51:38.759Z,73.90
2023-04-15T20:55:44.702Z,74.10
2023-04-15T20:59:50.628Z,73.90
2023-04-15T21:03:58.569Z,73.80
2023-04-15T21:08:04.573Z,74.10
2023-04-15T21:12:11.185Z,74.20
2023-04-15T21:16:16.652Z,74.10
2023-04-15T21:20:22.394Z,74.20
2023-04-15T21:24:28.134Z,74.40
2023-04-15T21:28:33.666Z,74.40
2023-04-15T21:32:39.258Z,75.20
2023-04-15T21:36:44.751Z,74.50
2023-04-15T21:40:51.231Z,74.50
2023-04-15T21:44:56.730Z,74.60
2023-04-15T21:49:04.159Z,75.00
2023-04-15T21:53:10.020Z,74.80
2023-04-15T21:57:15.748Z,74.60
2023-04-15T22:01:21.392Z,75.00
2023-04-15T22:05:27.086Z,74.30
2023-04-15T22:09:33.181Z,74.20
2023-04-15T22:13:38.701Z,74.30
2023-04-15T22:17:46.824Z,74.50
2023-04-15T22:21:52.417Z,74.40
2023-04-15T22:25:59.948Z,74.50
2023-04-15T22:30:06.467Z,74.60
2023-04-15T22:34:14.618Z,74.60
2023-04-15T22:38:20.037Z,74.90
2023-04-15T22:42:26.158Z,74.60
2023-04-15T22:46:31.770Z,74.30
2023-04-15T22:50:38.062Z,74.20
2023-04-15T22:54:43.522Z,74.30
2023-04-15T22:58:50.674Z,75.00
2023-04-15T23:02:56.303Z,74.60
2023-04-15T23:07:01.987Z,74.30
2023-04-15T23:11:08.223Z,74.40
2023-04-15T23:15:13.901Z,74.20
2023-04-15T23:19:19.440Z,74.00
2023-04-15T23:23:25.467Z,74.20
2023-04-15T23:27:31.136Z,74.10
2023-04-15T23:31:36.932Z,74.00
2023-04-15T23:35:43.563Z,74.00
2023-04-15T23:39:49.212Z,74.00
2023-04-15T23:43:54.661Z,73.80
2023-04-15T23:48:00.535Z,73.70
2023-04-15T23:52:06.458Z,73.70
2023-04-15T23:56:12.040Z,73.60
